Arkadelphia, Arkansas
Current Conditions -  °F | °C
As of 7:56 PM on Friday 31 Oct 2014 (Local Time) from KADF Reporting Station
Clear Clear  
Wind Chill: 55°   Ceiling: Unl
Heat Index: 55°   Visibility: 10mi
Dew Point: 39°   Wind: 7mph
Humidity: 55%   Direction: 340°NNW
Pressure: 30.3"   Gusts: NA
Location:  34.12°N, 93.05°W
Report Text: KADF 010056Z AUTO 34006KT 10SM CLR 13/04 A3030 RMK AO2 T01270038 SLP275
Loading
Personal Weather Stations






























Interactive Weather Map
Tropical Storm Tracking
New forecast layout! Learn more

10-Day Weather Forecast

Advertisements
Track Severe Weather on mobile